Rhonda E — WDF4153 — position and weather

sailwx.info

Track history (hours):
 
Tides and Currents Weather Stations Pressure Air Temp Water Temp Dewpoint Dewpoint Depression Visibility Wind Speed Wind Dir Waves Ship Positions

Rhonda E

Owner: Rhonda E., Baytown, TX. More information available from US FCC via Universal Licensing System and Coast Guard Vessel Documentation Center.

Last reported at 2017-Dec-11 16:01 UTC. Time now 2017-Dec-14 00:20 UTC.
Position N 29°44' W 095°04'.

Length 9 m; draft 2.2 m.

Type: . MMSI: 367448590.

Date/timePositionNaut miles runAvg speedWind from/ knotsBaromVisibWave heightAir tempDewpointWater temp
2017-Dec-11 16:01N 29°44' W 095°04'0 6.3
2017-Dec-11 16:00N 29°44' W 095°03'3 5.3
2017-Dec-11 15:30N 29°43' W 095°01'3 5.2
2017-Dec-11 15:00N 29°41' W 094°59'3 5.3
2017-Dec-11 14:30N 29°38' W 094°58'2 3.8
2017-Dec-11 14:00N 29°37' W 094°59'2 4.1
2017-Dec-11 13:28N 29°37' W 095°01'0 0.0
2017-Dec-11 12:58N 29°37' W 095°01'0 0.0
2017-Dec-11 12:28N 29°37' W 095°01'0 0.0
2017-Dec-11 11:58N 29°37' W 095°01'0 0.0
2017-Dec-11 11:28N 29°37' W 095°01'0 0.0
2017-Dec-11 10:58N 29°37' W 095°01'0 0.0
2017-Dec-11 10:28N 29°37' W 095°01'0 0.0
2017-Dec-11 09:58N 29°37' W 095°01'0 0.0
2017-Dec-11 09:28N 29°37' W 095°01'0 0.0
2017-Dec-11 08:58N 29°37' W 095°01'0 0.0
2017-Dec-11 08:28N 29°37' W 095°01'0 0.0
2017-Dec-11 07:58N 29°37' W 095°01'0 0.0
2017-Dec-11 07:28N 29°37' W 095°01'0 0.0
2017-Dec-11 06:58N 29°37' W 095°01'0 0.0
2017-Dec-11 06:28N 29°37' W 095°01'0 0.0
2017-Dec-11 05:58N 29°37' W 095°01'0 0.0
2017-Dec-11 05:28N 29°37' W 095°01'0 0.0
2017-Dec-11 04:58N 29°37' W 095°01'0 0.0
2017-Dec-11 04:28N 29°37' W 095°01'0 0.0
2017-Dec-11 03:58N 29°37' W 095°01'0 0.0
2017-Dec-11 03:25N 29°37' W 095°01'0 0.0
2017-Dec-11 02:58N 29°37' W 095°01'0 0.1
2017-Dec-11 02:29N 29°37' W 095°01'3 4.9
2017-Dec-11 01:46N 29°37' W 094°58'2 5.7
2017-Dec-11 01:29N 29°39' W 094°58'3 6.1
2017-Dec-11 00:58N 29°42' W 094°60'3 5.4
2017-Dec-11 00:28N 29°44' W 095°02'4 0.4
2017-Dec-10 15:08N 29°46' W 095°06'1 4.1
2017-Dec-10 15:00N 29°46' W 095°06'1 0.1
2017-Dec-10 05:00N 29°46' W 095°07'1 0.8
2017-Dec-10 04:09N 29°46' W 095°06'2 0.1
2017-Dec-08 11:56N 29°44' W 095°08'3 6.8
2017-Dec-08 11:30N 29°45' W 095°11'3 6.4
2017-Dec-08 11:00N 29°43' W 095°14'1 1.1
2017-Dec-08 10:01N 29°44' W 095°16'0 3.2
2017-Dec-08 10:00N 29°44' W 095°15'2 4.0
2017-Dec-08 09:30N 29°43' W 095°13'3 4.3
2017-Dec-08 08:50N 29°45' W 095°10'2 4.6
2017-Dec-08 08:27N 29°44' W 095°08'1 0.3
2017-Dec-08 03:47N 29°44' W 095°07'2 6.5
2017-Dec-08 03:30N 29°44' W 095°09'3 5.5
2017-Dec-08 02:55N 29°44' W 095°13'2 3.2
2017-Dec-08 02:21N 29°43' W 095°15'2 4.5
2017-Dec-08 01:50N 29°44' W 095°12'2 5.5
2017-Dec-08 01:29N 29°45' W 095°10'2 1.9
2017-Dec-08 00:37N 29°44' W 095°08'0 0.0
2017-Dec-07 17:37N 29°44' W 095°08'1 6.6
2017-Dec-07 17:30N 29°44' W 095°09'4 5.5
2017-Dec-07 16:50N 29°43' W 095°13'2 5.7
2017-Dec-07 16:30N 29°43' W 095°15'5 3.7
2017-Dec-07 15:07N 29°44' W 095°09'2 0.3
2017-Dec-07 05:45N 29°44' W 095°07'1 3.4
2017-Dec-07 05:26N 29°44' W 095°08'2 3.5
2017-Dec-07 05:00N 29°44' W 095°09'2 3.3
2017-Dec-07 04:30N 29°45' W 095°11'2 3.4
2017-Dec-07 03:59N 29°43' W 095°13'2 3.4
2017-Dec-07 03:30N 29°43' W 095°15'1 2.4
2017-Dec-07 02:58N 29°43' W 095°16'0 0.1
2017-Dec-07 02:28N 29°43' W 095°16'0 0.4
2017-Dec-07 02:00N 29°44' W 095°16'3 5.0
2017-Dec-07 01:29N 29°44' W 095°13'3 5.6
2017-Dec-07 00:57N 29°45' W 095°10'  
Track history (hours):
 
Tides and Currents Weather Stations Pressure Air Temp Water Temp Dewpoint Dewpoint Depression Visibility Wind Speed Wind Dir Waves Ship Positions

Rhonda E

Owner: Rhonda E., Baytown, TX. More information available from US FCC via Universal Licensing System and Coast Guard Vessel Documentation Center.

Last reported at 2017-Dec-11 16:01 UTC. Time now 2017-Dec-14 00:20 UTC.
Position N 29°44' W 095°04'.

Length 9 m; draft 2.2 m.

Type: . MMSI: 367448590.

Date/timePositionNaut miles runAvg speedWind from/ knotsBaromVisibWave heightAir tempDewpointWater temp
2017-Dec-11 16:01N 29°44' W 095°04'0 6.3
2017-Dec-11 16:00N 29°44' W 095°03'3 5.3
2017-Dec-11 15:30N 29°43' W 095°01'3 5.2
2017-Dec-11 15:00N 29°41' W 094°59'3 5.3
2017-Dec-11 14:30N 29°38' W 094°58'2 3.8
2017-Dec-11 14:00N 29°37' W 094°59'2 4.1
2017-Dec-11 13:28N 29°37' W 095°01'0 0.0
2017-Dec-11 12:58N 29°37' W 095°01'0 0.0
2017-Dec-11 12:28N 29°37' W 095°01'0 0.0
2017-Dec-11 11:58N 29°37' W 095°01'0 0.0
2017-Dec-11 11:28N 29°37' W 095°01'0 0.0
2017-Dec-11 10:58N 29°37' W 095°01'0 0.0
2017-Dec-11 10:28N 29°37' W 095°01'0 0.0
2017-Dec-11 09:58N 29°37' W 095°01'0 0.0
2017-Dec-11 09:28N 29°37' W 095°01'0 0.0
2017-Dec-11 08:58N 29°37' W 095°01'0 0.0
2017-Dec-11 08:28N 29°37' W 095°01'0 0.0
2017-Dec-11 07:58N 29°37' W 095°01'0 0.0
2017-Dec-11 07:28N 29°37' W 095°01'0 0.0
2017-Dec-11 06:58N 29°37' W 095°01'0 0.0
2017-Dec-11 06:28N 29°37' W 095°01'0 0.0
2017-Dec-11 05:58N 29°37' W 095°01'0 0.0
2017-Dec-11 05:28N 29°37' W 095°01'0 0.0
2017-Dec-11 04:58N 29°37' W 095°01'0 0.0
2017-Dec-11 04:28N 29°37' W 095°01'0 0.0
2017-Dec-11 03:58N 29°37' W 095°01'0 0.0
2017-Dec-11 03:25N 29°37' W 095°01'0 0.0
2017-Dec-11 02:58N 29°37' W 095°01'0 0.1
2017-Dec-11 02:29N 29°37' W 095°01'3 4.9
2017-Dec-11 01:46N 29°37' W 094°58'2 5.7
2017-Dec-11 01:29N 29°39' W 094°58'3 6.1
2017-Dec-11 00:58N 29°42' W 094°60'3 5.4
2017-Dec-11 00:28N 29°44' W 095°02'4 0.4
2017-Dec-10 15:08N 29°46' W 095°06'1 4.1
2017-Dec-10 15:00N 29°46' W 095°06'1 0.1
2017-Dec-10 05:00N 29°46' W 095°07'1 0.8
2017-Dec-10 04:09N 29°46' W 095°06'2 0.1
2017-Dec-08 11:56N 29°44' W 095°08'3 6.8
2017-Dec-08 11:30N 29°45' W 095°11'3 6.4
2017-Dec-08 11:00N 29°43' W 095°14'1 1.1
2017-Dec-08 10:01N 29°44' W 095°16'0 3.2
2017-Dec-08 10:00N 29°44' W 095°15'2 4.0
2017-Dec-08 09:30N 29°43' W 095°13'3 4.3
2017-Dec-08 08:50N 29°45' W 095°10'2 4.6
2017-Dec-08 08:27N 29°44' W 095°08'1 0.3
2017-Dec-08 03:47N 29°44' W 095°07'2 6.5
2017-Dec-08 03:30N 29°44' W 095°09'3 5.5
2017-Dec-08 02:55N 29°44' W 095°13'2 3.2
2017-Dec-08 02:21N 29°43' W 095°15'2 4.5
2017-Dec-08 01:50N 29°44' W 095°12'2 5.5
2017-Dec-08 01:29N 29°45' W 095°10'2 1.9
2017-Dec-08 00:37N 29°44' W 095°08'0 0.0
2017-Dec-07 17:37N 29°44' W 095°08'1 6.6
2017-Dec-07 17:30N 29°44' W 095°09'4 5.5
2017-Dec-07 16:50N 29°43' W 095°13'2 5.7
2017-Dec-07 16:30N 29°43' W 095°15'5 3.7
2017-Dec-07 15:07N 29°44' W 095°09'2 0.3
2017-Dec-07 05:45N 29°44' W 095°07'1 3.4
2017-Dec-07 05:26N 29°44' W 095°08'2 3.5
2017-Dec-07 05:00N 29°44' W 095°09'2 3.3
2017-Dec-07 04:30N 29°45' W 095°11'2 3.4
2017-Dec-07 03:59N 29°43' W 095°13'2 3.4
2017-Dec-07 03:30N 29°43' W 095°15'1 2.4
2017-Dec-07 02:58N 29°43' W 095°16'0 0.1
2017-Dec-07 02:28N 29°43' W 095°16'0 0.4
2017-Dec-07 02:00N 29°44' W 095°16'3 5.0
2017-Dec-07 01:29N 29°44' W 095°13'3 5.6
2017-Dec-07 00:57N 29°45' W 095°10'  

Dump ship's entire track history